Time;durP1;ratioP1;P1;durP2;ratioP2;P2;SDS_P1;SDS_P2;PMS_P1;PMS_P2;Temp;Humidity;BMP_temperature;BMP_pressure;BME280_temperature;BME280_humidity;BME280_pressure;Samples;Min_cycle;Max_cycle;Signal;HPM_P1;HPM_P2
2023/05/23 00:01:39;;;;;;;1.08;1.08;;;;;;;16.48;65.10;102096.44;5062220;28;20037;-83
2023/05/23 00:04:05;;;;;;;0.10;0.10;;;;;;;16.50;64.80;102087.44;5060714;28;20056;-81
2023/05/23 00:06:33;;;;;;;0.10;0.10;;;;;;;16.53;64.71;102094.50;5069056;28;20028;-82
2023/05/23 00:08:59;;;;;;;0.20;0.20;;;;;;;16.53;65.25;102097.19;5059551;28;20075;-82
2023/05/23 00:11:26;;;;;;;0.50;0.50;;;;;;;16.56;64.59;102099.81;5063804;28;20039;-82
2023/05/23 00:13:54;;;;;;;0.60;0.60;;;;;;;16.49;65.74;102096.38;5054309;28;21052;-82
2023/05/23 00:16:21;;;;;;;0.73;0.73;;;;;;;16.50;65.02;102099.97;5060792;28;20032;-82
2023/05/23 00:18:49;;;;;;;0.10;0.10;;;;;;;16.49;65.05;102098.19;5058990;28;20043;-82
2023/05/23 00:21:15;;;;;;;5.65;3.13;;;;;;;16.49;65.29;102108.91;5059703;28;20131;-80
2023/05/23 00:23:42;;;;;;;0.20;0.20;;;;;;;16.50;65.43;102097.28;5067004;28;20032;-81
2023/05/23 00:26:09;;;;;;;0.10;0.10;;;;;;;16.50;65.39;102105.31;5060132;28;20033;-80
2023/05/23 00:28:37;;;;;;;0.10;0.10;;;;;;;16.50;65.50;102103.50;5063405;28;20020;-81
2023/05/23 00:31:03;;;;;;;0.03;0.03;;;;;;;16.49;65.12;102099.06;5070874;28;20045;-81
2023/05/23 00:33:31;;;;;;;0.10;0.10;;;;;;;16.47;65.57;102108.94;5070168;28;20037;-81
2023/05/23 00:35:58;;;;;;;0.20;0.20;;;;;;;16.47;65.29;102108.94;5066685;28;20044;-81
2023/05/23 00:38:25;;;;;;;0.10;0.10;;;;;;;16.47;65.40;102106.25;5067702;28;20159;-81
2023/05/23 00:40:51;;;;;;;0.73;0.73;;;;;;;16.45;65.67;102108.09;5065691;28;20031;-82
2023/05/23 00:43:21;;;;;;;0.30;0.30;;;;;;;16.46;65.60;102109.84;5067462;28;20047;-82
2023/05/23 00:45:48;;;;;;;0.30;0.30;;;;;;;16.47;65.51;102106.25;5061510;28;20037;-81
2023/05/23 00:48:15;;;;;;;0.10;0.10;;;;;;;16.49;65.87;102109.75;5062852;28;20209;-82
2023/05/23 00:50:41;;;;;;;0.10;0.10;;;;;;;16.53;65.55;102115.91;5063343;28;20036;-82
2023/05/23 00:53:08;;;;;;;0.60;0.60;;;;;;;16.54;65.98;102117.69;5068302;28;20024;-82
2023/05/23 00:55:34;;;;;;;0.10;0.10;;;;;;;16.55;66.07;102110.53;5066267;28;20044;-82
2023/05/23 00:58:00;;;;;;;0.22;0.22;;;;;;;16.59;65.28;102120.25;5063458;28;20044;-82
2023/05/23 01:00:27;;;;;;;0.15;0.15;;;;;;;16.60;65.35;102112.19;5056322;28;20450;-81
2023/05/23 01:02:53;;;;;;;1.55;1.35;;;;;;;16.62;65.24;102118.38;5065248;28;20058;-82
2023/05/23 01:05:21;;;;;;;0.30;0.30;;;;;;;16.64;65.12;102110.31;5064517;28;20035;-81
2023/05/23 01:07:49;;;;;;;0.10;0.10;;;;;;;16.61;65.66;102123.75;5064919;28;20054;-81
2023/05/23 01:10:18;;;;;;;0.10;0.10;;;;;;;16.60;65.11;102117.53;5058982;28;20039;-82
2023/05/23 01:13:12;;;;;;;0.20;0.20;;;;;;;16.66;65.49;102127.22;5053636;28;20077;-80
2023/05/23 01:15:57;;;;;;;0.43;0.30;;;;;;;16.68;64.90;102125.34;5067192;28;20121;-81
2023/05/23 01:18:31;;;;;;;0.10;0.10;;;;;;;16.70;64.79;102120.84;5057815;28;20028;-82
2023/05/23 01:21:05;;;;;;;0.40;0.40;;;;;;;16.68;65.47;102136.06;5054037;28;20048;-81
2023/05/23 01:26:33;;;;;;;0.22;0.22;;;;;;;16.73;65.14;102123.44;5110723;27;20403;-78
2023/05/23 01:29:34;;;;;;;0.22;0.22;;;;;;;16.78;64.95;102115.31;5089521;28;20024;-78
2023/05/23 01:32:05;;;;;;;0.10;0.10;;;;;;;16.69;65.12;102127.13;5089183;28;20020;-78
2023/05/23 01:34:34;;;;;;;0.10;0.10;;;;;;;16.73;65.02;102120.75;5087594;28;20042;-78
2023/05/23 01:37:00;;;;;;;0.35;0.35;;;;;;;16.74;65.56;102130.56;5090147;28;20028;-78
2023/05/23 01:39:26;;;;;;;2.25;0.95;;;;;;;16.76;64.72;102128.72;5091766;28;20038;-78
2023/05/23 01:41:53;;;;;;;0.50;0.50;;;;;;;16.76;64.83;102118.03;5090695;28;20036;-79
2023/05/23 01:44:21;;;;;;;0.20;0.20;;;;;;;16.76;64.73;102128.72;5095133;28;20091;-79
2023/05/23 01:46:47;;;;;;;0.40;0.40;;;;;;;16.76;64.89;102128.72;5091582;28;20072;-78
2023/05/23 01:49:15;;;;;;;0.10;0.10;;;;;;;16.76;64.80;102128.72;5092385;28;20106;-77
2023/05/23 01:51:41;;;;;;;0.82;0.82;;;;;;;16.77;64.69;102127.81;5087998;28;20039;-78
2023/05/23 01:54:07;;;;;;;0.10;0.10;;;;;;;16.79;64.79;102128.63;5090069;28;20032;-78
2023/05/23 01:56:34;;;;;;;0.20;0.20;;;;;;;16.81;64.61;102134.84;5090622;28;20030;-78
2023/05/23 01:59:00;;;;;;;0.10;0.10;;;;;;;16.80;64.68;102138.44;5089755;28;20032;-78
2023/05/23 02:01:27;;;;;;;0.20;0.20;;;;;;;16.81;64.73;102137.53;5087362;28;20043;-78
2023/05/23 02:03:53;;;;;;;2.72;0.75;;;;;;;16.81;64.44;102142.88;5086391;28;20028;-78
2023/05/23 02:06:19;;;;;;;2.17;1.95;;;;;;;16.81;64.20;102133.97;5086994;28;20409;-78
2023/05/23 02:08:45;;;;;;;0.30;0.30;;;;;;;16.80;64.34;102130.41;5086731;28;20717;-78
2023/05/23 02:11:11;;;;;;;1.00;1.00;;;;;;;16.82;64.10;102128.56;5088344;28;20096;-78
2023/05/23 02:13:37;;;;;;;0.10;0.10;;;;;;;16.82;63.91;102128.56;5087246;28;20035;-78
2023/05/23 02:16:04;;;;;;;0.10;0.10;;;;;;;16.81;63.72;102131.31;5087000;28;20119;-78
2023/05/23 02:18:30;;;;;;;4.40;0.75;;;;;;;16.79;63.85;102123.28;5088175;28;20036;-78
2023/05/23 02:20:56;;;;;;;0.63;0.63;;;;;;;16.77;63.93;102125.13;5090220;28;20025;-78
2023/05/23 02:23:22;;;;;;;0.52;0.52;;;;;;;16.76;63.47;102136.75;5088444;28;20087;-79
2023/05/23 02:25:48;;;;;;;1.05;1.05;;;;;;;16.75;63.75;102137.66;5090638;28;20027;-79
2023/05/23 02:28:15;;;;;;;1.75;0.77;;;;;;;16.78;63.73;102137.56;5091148;28;20043;-77
2023/05/23 02:30:41;;;;;;;0.20;0.20;;;;;;;16.80;63.75;102135.75;5089633;28;20443;-78
2023/05/23 02:33:07;;;;;;;0.28;0.25;;;;;;;16.78;63.64;102142.94;5090287;28;20036;-78
2023/05/23 02:35:33;;;;;;;0.35;0.35;;;;;;;16.78;63.74;102148.28;5085798;28;20135;-78
2023/05/23 02:38:00;;;;;;;0.10;0.10;;;;;;;16.70;63.61;102157.44;5070196;28;20035;-79
2023/05/23 02:40:26;;;;;;;0.30;0.30;;;;;;;16.65;63.48;102158.44;5072281;28;20055;-79
2023/05/23 02:42:55;;;;;;;0.22;0.22;;;;;;;16.66;63.62;102164.69;5071242;28;20044;-78
2023/05/23 02:45:22;;;;;;;0.17;0.17;;;;;;;16.65;63.66;102165.59;5071256;28;20035;-78
2023/05/23 02:47:48;;;;;;;2.65;2.55;;;;;;;16.59;63.37;102168.41;5070026;28;20061;-79
2023/05/23 02:50:15;;;;;;;0.10;0.10;;;;;;;16.59;63.20;102165.75;5071710;28;20020;-78
2023/05/23 02:52:41;;;;;;;0.30;0.30;;;;;;;16.52;63.42;102182.84;5075731;28;20035;-78
2023/05/23 02:55:08;;;;;;;0.28;0.28;;;;;;;16.46;63.16;102178.50;5076134;28;20464;-78
2023/05/23 02:57:34;;;;;;;0.10;0.10;;;;;;;16.47;63.54;102173.16;5075595;28;20028;-79
2023/05/23 03:00:00;;;;;;;0.10;0.10;;;;;;;16.47;63.54;102166.91;5075922;28;20032;-78
2023/05/23 03:02:26;;;;;;;0.10;0.10;;;;;;;16.46;63.57;102168.69;5077453;28;20063;-78
2023/05/23 03:04:52;;;;;;;0.40;0.40;;;;;;;16.45;63.19;102169.63;5077660;28;20054;-77
2023/05/23 03:07:19;;;;;;;0.30;0.30;;;;;;;16.45;63.26;102171.41;5082084;28;20032;-78
2023/05/23 03:09:45;;;;;;;0.10;0.10;;;;;;;16.44;62.96;102175.88;5075310;28;20032;-78
2023/05/23 03:12:11;;;;;;;0.10;0.10;;;;;;;16.44;63.07;102181.22;5076375;28;20028;-78
2023/05/23 03:14:37;;;;;;;0.10;0.10;;;;;;;16.42;62.83;102183.03;5076929;28;20027;-79
2023/05/23 03:17:03;;;;;;;0.10;0.10;;;;;;;16.38;62.99;102181.38;5074263;28;20029;-79
2023/05/23 03:19:29;;;;;;;0.20;0.20;;;;;;;16.36;62.95;102176.97;5074847;28;20032;-78
2023/05/23 03:21:56;;;;;;;0.10;0.10;;;;;;;16.33;62.48;102175.25;5074219;28;20032;-78
2023/05/23 03:24:22;;;;;;;0.20;0.20;;;;;;;16.34;62.71;102179.69;5075248;28;20017;-79
2023/05/23 03:26:48;;;;;;;0.30;0.30;;;;;;;16.36;62.64;102177.84;5074375;28;20044;-78
2023/05/23 03:29:14;;;;;;;1.85;1.75;;;;;;;16.35;62.68;102184.13;5075947;28;20032;-78
2023/05/23 03:31:40;;;;;;;0.10;0.10;;;;;;;16.32;62.45;102181.50;5075433;28;20054;-77
2023/05/23 03:34:07;;;;;;;4.15;1.85;;;;;;;16.29;62.44;102176.25;5075041;28;20024;-79
2023/05/23 03:36:34;;;;;;;0.52;0.52;;;;;;;16.30;62.36;102183.34;5078222;28;20032;-79
2023/05/23 03:39:00;;;;;;;0.40;0.40;;;;;;;16.27;62.27;102183.41;5073787;28;20116;-78
2023/05/23 03:41:26;;;;;;;0.20;0.20;;;;;;;16.25;62.44;102186.13;5074275;28;20028;-79
2023/05/23 03:43:52;;;;;;;0.20;0.20;;;;;;;16.21;62.40;102188.88;5073938;28;20401;-79
2023/05/23 03:46:19;;;;;;;0.05;0.05;;;;;;;16.21;62.38;102194.25;5076786;28;20028;-78
2023/05/23 03:48:45;;;;;;;4.97;0.88;;;;;;;16.18;62.60;102189.84;5073083;28;20075;-79
2023/05/23 03:51:12;;;;;;;0.10;0.10;;;;;;;16.15;62.21;102190.78;5072309;28;20029;-79
2023/05/23 03:53:38;;;;;;;0.10;0.10;;;;;;;16.17;62.25;102193.41;5072369;28;20028;-79
2023/05/23 03:56:04;;;;;;;4.43;1.65;;;;;;;16.12;62.32;102204.22;5073350;28;20409;-79
2023/05/23 03:58:30;;;;;;;0.10;0.10;;;;;;;16.05;61.87;102202.59;5073105;28;20848;-79
2023/05/23 04:00:57;;;;;;;0.10;0.10;;;;;;;16.01;61.93;102220.50;5070317;28;20039;-78
2023/05/23 04:03:24;;;;;;;0.10;0.10;;;;;;;15.97;61.79;102220.59;5072578;28;20457;-78
2023/05/23 04:05:51;;;;;;;0.47;0.47;;;;;;;15.95;61.44;102215.28;5069341;28;20016;-78
2023/05/23 04:08:20;;;;;;;0.10;0.10;;;;;;;15.94;61.78;102224.22;5070335;28;20052;-78
2023/05/23 04:10:47;;;;;;;0.40;0.40;;;;;;;15.91;61.58;102221.56;5069763;28;20052;-79
2023/05/23 04:13:14;;;;;;;0.10;0.10;;;;;;;15.95;61.74;102219.72;5072010;28;20032;-78
2023/05/23 04:15:41;;;;;;;0.10;0.10;;;;;;;15.99;61.67;102226.78;5070451;28;20036;-79
2023/05/23 04:18:08;;;;;;;0.10;0.10;;;;;;;16.00;61.55;102225.88;5071185;28;20056;-78
2023/05/23 04:20:34;;;;;;;0.10;0.10;;;;;;;16.02;61.32;102229.38;5066532;28;20032;-77
2023/05/23 04:23:00;;;;;;;0.77;0.47;;;;;;;15.99;61.15;102232.13;5068821;28;20388;-78
2023/05/23 04:25:26;;;;;;;0.10;0.10;;;;;;;15.98;61.25;102235.72;5068882;28;20486;-79
2023/05/23 04:27:54;;;;;;;0.20;0.17;;;;;;;15.93;61.04;102226.91;5059276;28;20036;-77
2023/05/23 04:30:21;;;;;;;0.10;0.10;;;;;;;15.92;61.05;102235.84;5057447;28;20032;-77
2023/05/23 04:32:47;;;;;;;0.20;0.20;;;;;;;15.88;60.76;102231.47;5059799;28;20490;-77
2023/05/23 04:35:13;;;;;;;0.88;0.55;;;;;;;15.82;60.62;102241.34;5058986;28;20413;-77
2023/05/23 04:37:40;;;;;;;0.22;0.22;;;;;;;15.76;60.40;102244.09;5061503;28;20024;-77
2023/05/23 04:40:07;;;;;;;0.63;0.63;;;;;;;15.70;60.15;102244.22;5058055;28;20032;-77
2023/05/23 04:42:34;;;;;;;0.50;0.50;;;;;;;15.66;60.13;102250.56;5062693;28;20040;-78
2023/05/23 04:45:02;;;;;;;0.13;0.13;;;;;;;15.68;60.15;102270.97;5059661;28;20024;-77
2023/05/23 04:47:28;;;;;;;0.10;0.10;;;;;;;15.62;59.59;102259.53;5060887;28;20040;-78
2023/05/23 04:49:56;;;;;;;0.17;0.17;;;;;;;15.65;59.96;102267.47;5062524;28;20032;-77
2023/05/23 04:52:22;;;;;;;0.10;0.10;;;;;;;15.64;59.87;102273.75;5064235;28;20035;-77
2023/05/23 04:54:48;;;;;;;0.17;0.17;;;;;;;15.63;59.59;102274.66;5059543;28;20032;-77
2023/05/23 04:57:14;;;;;;;0.65;0.65;;;;;;;15.63;59.38;102277.34;5059647;28;20036;-77
2023/05/23 04:59:41;;;;;;;0.10;0.10;;;;;;;15.63;59.54;102269.31;5064423;28;20043;-77
2023/05/23 05:02:08;;;;;;;0.73;0.73;;;;;;;15.60;59.54;102280.94;5063529;28;20024;-77
2023/05/23 05:04:35;;;;;;;0.30;0.30;;;;;;;15.63;59.67;102286.22;5059439;28;20062;-77
2023/05/23 05:07:03;;;;;;;0.15;0.15;;;;;;;15.64;59.72;102279.09;5057181;28;20086;-78
2023/05/23 05:09:30;;;;;;;0.00;0.00;;;;;;;15.65;59.52;102288.84;5057743;28;20486;-77
2023/05/23 05:11:57;;;;;;;0.10;0.10;;;;;;;15.66;59.70;102294.19;5059529;28;20398;-78
2023/05/23 05:14:24;;;;;;;0.10;0.10;;;;;;;15.69;59.73;102294.13;5063442;28;20029;-77
2023/05/23 05:16:50;;;;;;;0.32;0.32;;;;;;;15.70;59.34;102295.00;5056936;28;20032;-77
2023/05/23 05:19:16;;;;;;;0.10;0.10;;;;;;;15.74;59.67;102295.81;5064671;28;20021;-78
2023/05/23 05:21:42;;;;;;;0.28;0.28;;;;;;;15.74;59.21;102299.41;5065708;28;20032;-78
2023/05/23 05:24:08;;;;;;;0.15;0.15;;;;;;;15.74;59.22;102296.72;5066297;28;20029;-78
2023/05/23 05:26:35;;;;;;;0.10;0.10;;;;;;;15.73;58.59;102305.66;5069552;28;20029;-77
2023/05/23 05:29:02;;;;;;;0.10;0.10;;;;;;;15.69;59.08;102314.63;5070683;28;20032;-76
2023/05/23 05:31:28;;;;;;;0.88;0.88;;;;;;;15.64;58.74;102317.38;5062873;28;20486;-77
2023/05/23 05:33:54;;;;;;;0.22;0.22;;;;;;;15.64;58.41;102306.69;5061192;28;20093;-77
2023/05/23 05:36:20;;;;;;;0.82;0.82;;;;;;;15.59;58.87;102313.00;5066887;28;20028;-79
2023/05/23 05:38:47;;;;;;;4.18;0.63;;;;;;;15.58;58.67;102311.28;5075304;28;20512;-78
2023/05/23 05:41:13;;;;;;;0.80;0.80;;;;;;;15.60;58.97;102320.13;5079451;28;20048;-79
2023/05/23 05:43:39;;;;;;;0.13;0.13;;;;;;;15.66;58.52;102314.69;5074897;28;20110;-77
2023/05/23 05:46:05;;;;;;;0.10;0.10;;;;;;;15.63;58.79;102328.09;5065174;28;20032;-78
2023/05/23 05:48:31;;;;;;;0.43;0.43;;;;;;;15.58;58.04;102321.97;5066839;28;20040;-77
2023/05/23 05:50:59;;;;;;;0.10;0.10;;;;;;;15.52;57.83;102329.16;5062468;28;20043;-77
2023/05/23 05:53:26;;;;;;;0.60;0.60;;;;;;;15.54;57.85;102331.81;5076465;28;20024;-80
2023/05/23 05:55:53;;;;;;;0.20;0.20;;;;;;;15.55;57.92;102328.22;5072435;28;20171;-78
2023/05/23 05:58:19;;;;;;;0.52;0.52;;;;;;;15.56;57.87;102337.13;5067121;28;20039;-78
2023/05/23 06:00:47;;;;;;;0.10;0.10;;;;;;;15.54;57.87;102331.81;5073967;28;20029;-78
2023/05/23 06:03:14;;;;;;;0.35;0.35;;;;;;;15.63;58.05;102346.81;5072185;28;20025;-78
2023/05/23 06:05:40;;;;;;;3.92;0.70;;;;;;;15.65;57.68;102339.63;5067251;28;20017;-78
2023/05/23 06:08:07;;;;;;;0.70;0.60;;;;;;;15.58;57.83;102340.66;5069879;28;20532;-78
2023/05/23 06:10:36;;;;;;;0.10;0.10;;;;;;;15.58;57.73;102343.34;5073980;28;20039;-77
2023/05/23 06:13:02;;;;;;;0.43;0.43;;;;;;;15.60;58.10;102352.19;5082186;28;20048;-78
2023/05/23 06:15:28;;;;;;;0.25;0.25;;;;;;;15.60;58.04;102338.81;5075472;28;20033;-80
2023/05/23 06:17:54;;;;;;;0.10;0.10;;;;;;;15.63;58.55;102344.13;5079054;28;20027;-79
2023/05/23 06:20:20;;;;;;;0.40;0.40;;;;;;;15.73;58.33;102342.19;5085606;28;20039;-79
2023/05/23 06:22:46;;;;;;;0.30;0.30;;;;;;;15.73;58.48;102348.41;5084490;28;20077;-78
2023/05/23 06:25:12;;;;;;;0.03;0.03;;;;;;;15.78;58.19;102351.00;5083095;28;20024;-79
2023/05/23 06:27:38;;;;;;;0.10;0.10;;;;;;;15.76;58.45;102345.66;5087715;28;20048;-78
2023/05/23 06:30:05;;;;;;;0.15;0.15;;;;;;;15.74;58.65;102344.81;5085522;28;20021;-78
2023/05/23 06:32:31;;;;;;;0.10;0.10;;;;;;;15.74;58.72;102349.28;5083384;28;20088;-78
2023/05/23 06:34:57;;;;;;;0.35;0.35;;;;;;;15.70;58.94;102348.44;5086419;28;20019;-79
2023/05/23 06:37:23;;;;;;;0.50;0.50;;;;;;;15.68;59.61;102356.47;5082409;28;20132;-79
2023/05/23 06:39:49;;;;;;;0.00;0.00;;;;;;;15.71;59.63;102355.56;5089708;28;20096;-79
2023/05/23 06:42:16;;;;;;;0.10;0.10;;;;;;;15.75;59.18;102362.63;5080036;28;20078;-80
2023/05/23 06:44:42;;;;;;;0.10;0.10;;;;;;;15.70;58.99;102353.78;5084726;28;20088;-79
2023/05/23 06:47:08;;;;;;;0.10;0.10;;;;;;;15.64;59.16;102353.91;5083601;28;20148;-79
2023/05/23 06:49:34;;;;;;;0.10;0.10;;;;;;;15.71;59.00;102354.69;5082779;28;20471;-79
2023/05/23 06:52:00;;;;;;;0.10;0.10;;;;;;;15.62;59.42;102361.06;5081487;28;20448;-78
2023/05/23 06:54:26;;;;;;;0.75;0.57;;;;;;;15.71;59.07;102366.25;5084592;28;20516;-79
2023/05/23 06:56:52;;;;;;;0.10;0.10;;;;;;;15.71;58.99;102371.59;5082901;28;20062;-79
2023/05/23 06:59:18;;;;;;;0.10;0.10;;;;;;;15.78;58.92;102367.03;5082214;28;20039;-79
2023/05/23 07:01:45;;;;;;;0.10;0.10;;;;;;;15.81;59.28;102367.88;5084972;28;20103;-78
2023/05/23 07:04:11;;;;;;;0.10;0.10;;;;;;;15.94;58.89;102368.56;5083119;28;20089;-79
2023/05/23 07:06:38;;;;;;;0.10;0.10;;;;;;;16.10;58.37;102369.16;5079598;28;20024;-79
2023/05/23 07:09:04;;;;;;;0.10;0.10;;;;;;;16.17;57.91;102370.81;5081407;28;20020;-79
2023/05/23 07:11:31;;;;;;;0.10;0.10;;;;;;;16.26;57.50;102366.16;5085092;28;20433;-79
2023/05/23 07:13:57;;;;;;;3.72;0.55;;;;;;;16.39;58.04;102375.72;5085852;28;20020;-78
2023/05/23 07:16:23;;;;;;;5.93;2.15;;;;;;;16.41;57.00;102373.91;5084949;28;20028;-80
2023/05/23 07:18:50;;;;;;;0.20;0.20;;;;;;;16.44;57.04;102381.84;5083612;28;20529;-80
2023/05/23 07:21:16;;;;;;;0.10;0.10;;;;;;;16.40;56.92;102387.28;5078461;28;20028;-79
2023/05/23 07:23:42;;;;;;;0.00;0.00;;;;;;;16.41;56.04;102379.25;5080406;28;20524;-80
2023/05/23 07:26:08;;;;;;;0.10;0.10;;;;;;;16.45;56.57;102386.31;5080699;28;20039;-80
2023/05/23 07:28:35;;;;;;;0.10;0.10;;;;;;;16.46;56.39;102390.75;5080829;28;20044;-78
2023/05/23 07:31:01;;;;;;;0.10;0.10;;;;;;;16.47;55.97;102397.88;5080403;28;20025;-79
2023/05/23 07:33:27;;;;;;;0.10;0.10;;;;;;;16.44;55.22;102389.88;5075632;28;20067;-79
2023/05/23 07:35:53;;;;;;;0.10;0.10;;;;;;;16.50;55.69;102399.59;5079610;28;20055;-78
2023/05/23 07:38:19;;;;;;;0.10;0.10;;;;;;;16.55;55.46;102396.81;5078584;28;20075;-79
2023/05/23 07:40:48;;;;;;;0.63;0.63;;;;;;;16.57;55.19;102395.00;5078831;28;20020;-79
2023/05/23 07:43:14;;;;;;;0.10;0.10;;;;;;;16.55;55.20;102386.09;5078205;28;20028;-79
2023/05/23 07:45:40;;;;;;;0.10;0.10;;;;;;;16.58;55.18;102402.97;5076105;28;20032;-79
2023/05/23 07:48:07;;;;;;;0.10;0.10;;;;;;;16.65;55.38;102396.59;5077174;28;20032;-78
2023/05/23 07:50:33;;;;;;;0.10;0.10;;;;;;;16.72;53.85;102388.44;5079181;28;20024;-79
2023/05/23 07:52:59;;;;;;;0.10;0.10;;;;;;;16.75;54.57;102396.41;5082029;28;20050;-78
2023/05/23 07:55:25;;;;;;;0.05;0.05;;;;;;;16.76;53.44;102396.38;5085218;28;20559;-79
2023/05/23 07:57:53;;;;;;;1.38;1.00;;;;;;;16.82;53.58;102398.94;5083557;28;20024;-79
2023/05/23 08:00:20;;;;;;;0.10;0.10;;;;;;;16.86;52.85;102404.19;5081893;28;20021;-78
2023/05/23 08:02:46;;;;;;;0.38;0.38;;;;;;;16.84;52.70;102420.31;5081759;28;20143;-79
2023/05/23 08:05:12;;;;;;;0.63;0.63;;;;;;;16.78;52.49;102413.28;5083252;28;20028;-78
2023/05/23 08:07:38;;;;;;;0.08;0.08;;;;;;;16.69;52.43;102405.44;5083411;28;20025;-78
2023/05/23 08:10:04;;;;;;;0.10;0.10;;;;;;;16.61;52.95;102407.38;5080446;28;20029;-78
2023/05/23 08:12:31;;;;;;;0.20;0.20;;;;;;;16.54;52.77;102409.31;5081751;28;20028;-80
2023/05/23 08:14:57;;;;;;;0.10;0.10;;;;;;;16.59;52.69;102414.59;5081395;28;20017;-82
2023/05/23 08:17:23;;;;;;;0.10;0.10;;;;;;;16.61;52.66;102412.72;5080285;28;20031;-79
2023/05/23 08:19:49;;;;;;;0.20;0.20;;;;;;;16.76;52.48;102411.53;5084309;28;20040;-79
2023/05/23 08:22:16;;;;;;;0.10;0.10;;;;;;;16.92;52.57;102422.84;5083705;28;20025;-79
2023/05/23 08:24:42;;;;;;;0.10;0.10;;;;;;;17.09;52.19;102417.13;5082860;28;20030;-78
2023/05/23 08:27:08;;;;;;;2.83;1.88;;;;;;;17.25;51.97;102409.63;5081383;28;20024;-78
2023/05/23 08:29:34;;;;;;;0.73;0.45;;;;;;;17.38;51.52;102412.91;5085256;28;20029;-79
2023/05/23 08:32:00;;;;;;;0.10;0.10;;;;;;;17.49;50.62;102412.66;5083956;28;20031;-79
2023/05/23 08:34:26;;;;;;;0.10;0.10;;;;;;;17.62;50.54;102408.75;5082659;28;20036;-78
2023/05/23 08:36:52;;;;;;;0.10;0.10;;;;;;;17.69;49.72;102421.06;5082284;28;20028;-79
2023/05/23 08:39:19;;;;;;;4.20;1.85;;;;;;;17.79;49.40;102422.63;5082501;28;20024;-79
2023/05/23 08:41:45;;;;;;;0.10;0.10;;;;;;;17.92;49.91;102425.00;5081308;28;20028;-80
2023/05/23 08:44:11;;;;;;;0.10;0.10;;;;;;;18.06;49.27;102422.84;5084058;28;20063;-80
2023/05/23 08:46:44;;;;;;;0.10;0.10;;;;;;;18.28;49.61;102414.25;5083862;28;20134;-79
2023/05/23 08:49:13;;;;;;;0.20;0.20;;;;;;;18.44;49.38;102420.03;5085709;28;20044;-78
2023/05/23 08:51:42;;;;;;;0.20;0.20;;;;;;;18.53;49.30;102413.53;5087970;28;20048;-80
2023/05/23 08:54:12;;;;;;;1.40;1.40;;;;;;;18.55;48.56;102409.00;5084228;28;20040;-79
2023/05/23 08:56:39;;;;;;;0.10;0.10;;;;;;;18.49;48.09;102427.97;5084423;28;20046;-79
2023/05/23 08:59:07;;;;;;;4.80;1.92;;;;;;;18.46;48.81;102417.34;5082136;28;20032;-80
2023/05/23 09:01:34;;;;;;;0.10;0.10;;;;;;;18.39;48.96;102427.34;5078753;28;20119;-79
2023/05/23 09:04:03;;;;;;;0.43;0.43;;;;;;;18.35;48.57;102420.31;5084613;28;20024;-79
2023/05/23 09:06:31;;;;;;;0.10;0.10;;;;;;;18.39;49.26;102424.66;5083681;28;20030;-80
2023/05/23 09:08:57;;;;;;;1.10;1.08;;;;;;;18.39;49.28;102427.34;5082234;28;20037;-79
2023/05/23 09:11:24;;;;;;;0.22;0.22;;;;;;;18.39;48.95;102441.66;5085069;28;20024;-79
2023/05/23 09:13:50;;;;;;;0.10;0.10;;;;;;;18.38;48.03;102434.53;5082210;28;20052;-78
2023/05/23 09:16:17;;;;;;;0.08;0.08;;;;;;;18.43;48.72;102437.09;5085394;28;20047;-79
2023/05/23 09:18:44;;;;;;;0.10;0.10;;;;;;;18.55;48.19;102444.78;5081549;28;20115;-79
2023/05/23 09:21:12;;;;;;;0.75;0.75;;;;;;;18.62;48.01;102444.59;5080797;28;20020;-78
2023/05/23 09:23:40;;;;;;;0.10;0.10;;;;;;;18.63;45.74;102443.69;5078695;28;20028;-78
2023/05/23 09:26:08;;;;;;;0.45;0.45;;;;;;;18.56;46.59;102441.16;5071514;28;20032;-79
2023/05/23 09:28:36;;;;;;;0.10;0.10;;;;;;;18.50;47.16;102440.47;5080092;28;20063;-79
2023/05/23 09:31:05;;;;;;;0.73;0.73;;;;;;;18.42;47.62;102451.44;5079224;28;20024;-80
2023/05/23 09:33:36;;;;;;;0.10;0.10;;;;;;;18.40;47.81;102446.06;5079701;28;20124;-78
2023/05/23 09:36:04;;;;;;;0.10;0.10;;;;;;;18.37;47.83;102456.91;5079777;28;20070;-78
2023/05/23 09:38:39;;;;;;;0.10;0.10;;;;;;;18.34;47.40;102440.88;5079932;28;20028;-80
2023/05/23 09:41:06;;;;;;;10.40;0.75;;;;;;;18.34;47.71;102446.25;5081731;28;20036;-79
2023/05/23 09:43:32;;;;;;;0.05;0.05;;;;;;;18.43;47.58;102462.13;5083069;28;20029;-82
2023/05/23 09:46:13;;;;;;;0.10;0.10;;;;;;;18.59;46.40;102453.63;5085074;28;20044;-81
2023/05/23 09:48:45;;;;;;;0.10;0.10;;;;;;;18.63;47.10;102443.69;5082116;28;20037;-81
2023/05/23 09:51:11;;;;;;;0.10;0.10;;;;;;;18.78;47.05;102453.09;5082464;28;21072;-82
2023/05/23 09:53:37;;;;;;;0.10;0.10;;;;;;;18.88;45.79;102455.47;5087365;28;20290;-79
2023/05/23 09:56:03;;;;;;;0.10;0.10;;;;;;;19.04;46.13;102450.56;5084288;28;20028;-80
2023/05/23 09:58:31;;;;;;;0.10;0.10;;;;;;;19.26;45.79;102451.72;5085237;28;20032;-81
2023/05/23 10:01:02;;;;;;;0.75;0.75;;;;;;;19.39;43.83;102448.59;5082741;28;20103;-81
2023/05/23 10:06:19;;;;;;;0.17;0.17;;;;;;;19.51;45.00;102455.38;5077639;28;20420;-82
2023/05/23 10:08:50;;;;;;;0.20;0.20;;;;;;;19.40;44.62;102447.69;5040793;28;20029;-80
2023/05/23 10:11:56;;;;;;;0.20;0.20;;;;;;;19.40;45.20;102458.44;5045132;28;20005;-79
2023/05/23 10:14:23;;;;;;;0.10;0.10;;;;;;;19.30;45.55;102464.13;5046572;28;20097;-82
2023/05/23 10:17:02;;;;;;;0.75;0.75;;;;;;;19.42;45.61;102461.06;5044357;28;20025;-82
2023/05/23 10:19:53;;;;;;;0.30;0.30;;;;;;;19.51;45.17;102458.06;5041984;28;20025;-82
2023/05/23 10:22:22;;;;;;;0.10;0.10;;;;;;;19.51;45.35;102454.50;5041955;28;20014;-80
2023/05/23 10:24:48;;;;;;;0.10;0.10;;;;;;;19.57;45.45;102459.69;5040077;28;20024;-80
2023/05/23 10:27:14;;;;;;;0.43;0.43;;;;;;;19.73;45.01;102466.31;5043452;28;20037;-82
2023/05/23 10:29:41;;;;;;;1.05;1.05;;;;;;;19.90;44.11;102469.41;5043349;28;20395;-81
2023/05/23 10:32:08;;;;;;;0.10;0.10;;;;;;;19.93;43.79;102475.59;5044279;28;20030;-82
2023/05/23 10:35:06;;;;;;;0.85;0.68;;;;;;;19.88;43.65;102456.91;5043800;28;20025;-81
2023/05/23 10:37:51;;;;;;;0.10;0.10;;;;;;;19.69;43.67;102464.69;5036777;28;20034;-82
2023/05/23 10:40:44;;;;;;;0.10;0.10;;;;;;;19.61;44.12;102471.22;5044225;28;20030;-80
2023/05/23 10:45:51;;;;;;;0.10;0.10;;;;;;;19.79;44.17;102472.44;5074761;28;20353;-82
2023/05/23 10:48:32;;;;;;;0.43;0.43;;;;;;;19.91;43.62;102477.44;5072545;28;20041;-82
2023/05/23 10:51:04;;;;;;;0.10;0.10;;;;;;;20.08;43.13;102478.69;5062059;28;20408;-82
2023/05/23 10:53:33;;;;;;;0.35;0.35;;;;;;;20.16;42.60;102471.22;5052851;28;20025;-82
2023/05/23 10:55:59;;;;;;;0.05;0.05;;;;;;;20.22;42.71;102465.63;5052082;28;20090;-83
2023/05/23 10:58:28;;;;;;;0.35;0.35;;;;;;;20.37;43.12;102464.22;5052270;28;20056;-82
2023/05/23 11:00:58;;;;;;;0.10;0.10;;;;;;;20.39;42.23;102466.84;5050541;28;20032;-83
2023/05/23 11:03:34;;;;;;;0.10;0.10;;;;;;;20.40;42.38;102463.22;5059216;28;20062;-83
2023/05/23 11:06:02;;;;;;;0.20;0.20;;;;;;;20.11;42.20;102483.97;5052412;28;20029;-83
2023/05/23 11:08:39;;;;;;;0.10;0.10;;;;;;;19.91;42.51;102480.13;5053269;28;20499;-82
2023/05/23 11:11:05;;;;;;;0.10;0.10;;;;;;;19.59;43.33;102482.03;5052576;28;20032;-82
2023/05/23 11:13:54;;;;;;;0.22;0.22;;;;;;;19.54;43.86;102478.63;5055496;28;20032;-82
2023/05/23 11:21:57;;;;;;;0.20;0.20;;;;;;;19.65;43.03;102467.50;5102788;27;1166182;-83
2023/05/23 11:24:44;;;;;;;0.10;0.10;;;;;;;19.82;42.88;102475.03;5112134;28;20080;-82
2023/05/23 11:27:11;;;;;;;0.40;0.40;;;;;;;19.99;40.87;102464.63;5116063;28;20503;-82
2023/05/23 11:29:37;;;;;;;0.10;0.10;;;;;;;20.25;42.46;102489.75;5113660;28;20035;-82
2023/05/23 11:32:12;;;;;;;0.10;0.10;;;;;;;20.41;42.14;102481.13;5113289;28;20031;-82
2023/05/23 11:34:40;;;;;;;0.10;0.10;;;;;;;20.31;42.18;102483.25;5111335;28;20042;-82
2023/05/23 11:37:06;;;;;;;0.10;0.10;;;;;;;20.20;41.91;102489.91;5113655;28;20028;-82
2023/05/23 11:39:32;;;;;;;0.10;0.10;;;;;;;20.18;42.76;102485.50;5112447;28;20497;-82
2023/05/23 11:42:00;;;;;;;1.23;1.13;;;;;;;20.33;42.13;102484.97;5113597;28;20036;-81